Kezdőlap
METAR-TAF:

METAR-TAF

Repülőterek :

Wattay nemzetközi repülőtér

Vientián, Laosz

földrajzi szélesség: 17-57N, földrajzi hosszúság: 102-34E, magasság: 171 m

Jelenlegi meteorológiai megfigyelések

A jelentés 1 órával és 20 perccel ezelõtt készült, 12:30 UTC
Nyugat-északnyugati szél 2 kt
Hőmérséklet 24°C
Páratartalom 100%
Légköri nyomás 1013 hPa
Látótávolság: 5000 m
Szórványos felhőzet 5000 lábon
Párásság

METAR: VLVT 311230Z 30002KT 5000 BR SCT050 24/24 Q1013 NOSIG

Idő: 20:50 (13:50 UTC)

Előrejelzés

A jelentés 2 órával és 50 perccel ezelõtt készült, 11:00 UTC
Az előrejelzés 31-én 12 óra UTC és 01-én 12 óra UTC között érvényes
Keleti szél 4 kt
Látótávolság 10 km, vagy több
Szórványos felhőzet 1600 lábon
Szakadozott felhőzet 5000 lábon

TAF: VLVT 311100Z 3112/0112 09004KT 9999 SCT016 BKN050

Meteorológiai megfigyelések és előrejelzések több, mint 4000 repülőtéren (METAR és TAF jelentéseket).

A térképen piros és sárga pontok jelzik az elérhető meteorológiai állomásokat.

Mozgassa az egeret a pont fölött, hogy megjelenjen az állomás neve.

Azután kattintson az időjárási megfigyelések és előrejelzések megtekintéséhez.

A térkép megváltoztatása: kattintson a fekete keresztel jelölt zöld gombra ráközelítéshez, a vonallal jelölt zöld gombra távolításhoz, vagy a zöld nyilakra a szomszédos térképek eléréséhez.


METAR-TAF: